createdAt,value
2022-11-21T07:14:09.405Z,25.02
2022-11-21T07:16:36.700Z,26.30
2022-11-21T07:19:03.355Z,26.13
2022-11-21T07:21:29.902Z,28.27
2022-11-21T07:23:56.392Z,28.70
2022-11-21T07:26:22.845Z,25.83
2022-11-21T07:28:49.391Z,27.75
2022-11-21T07:31:15.899Z,26.60
2022-11-21T07:33:46.643Z,26.02
2022-11-21T07:36:13.182Z,26.80
2022-11-21T07:38:41.455Z,27.23
2022-11-21T07:41:08.687Z,28.05
2022-11-21T07:43:35.244Z,26.25
2022-11-21T07:46:01.832Z,26.80
2022-11-21T07:48:28.308Z,28.48
2022-11-21T07:50:54.834Z,29.50
2022-11-21T07:53:21.439Z,29.02
2022-11-21T07:55:48.006Z,29.02
2022-11-21T07:58:16.297Z,26.88
2022-11-21T08:00:43.183Z,28.25
2022-11-21T08:03:11.976Z,25.75
2022-11-21T08:05:41.008Z,29.45
2022-11-21T08:08:08.182Z,27.80
2022-11-21T08:10:38.317Z,25.55
2022-11-21T08:13:05.841Z,29.65
2022-11-21T08:15:35.749Z,28.17
2022-11-21T08:18:15.657Z,27.95
2022-11-21T08:20:42.843Z,25.00
2022-11-21T08:23:10.763Z,27.67
2022-11-21T08:25:38.467Z,26.33
2022-11-21T08:28:05.861Z,28.27
2022-11-21T08:30:33.415Z,29.80
2022-11-21T08:33:01.098Z,28.23
2022-11-21T08:35:28.172Z,29.65
2022-11-21T08:38:02.013Z,28.17
2022-11-21T08:40:30.259Z,30.17
2022-11-21T08:43:04.897Z,29.73
2022-11-21T08:45:32.292Z,31.52
2022-11-21T08:47:58.822Z,29.83
2022-11-21T08:50:26.322Z,29.77
2022-11-21T08:52:52.784Z,28.63
2022-11-21T08:55:19.632Z,28.75
2022-11-21T08:57:46.164Z,28.90
2022-11-21T09:00:13.346Z,27.98
2022-11-21T09:02:40.131Z,29.27
2022-11-21T09:05:07.076Z,27.95
2022-11-21T09:07:33.616Z,28.20
2022-11-21T09:10:00.149Z,29.20
2022-11-21T09:12:26.634Z,26.70
2022-11-21T09:15:22.334Z,28.60
2022-11-21T09:18:03.713Z,29.00
2022-11-21T09:20:38.059Z,29.48
2022-11-21T09:23:12.270Z,29.75
2022-11-21T09:25:39.335Z,27.77
2022-11-21T09:28:07.877Z,27.85
2022-11-21T09:30:36.212Z,27.85
2022-11-21T09:33:08.114Z,25.75
2022-11-21T09:35:34.652Z,27.25
2022-11-21T09:38:01.242Z,26.50
2022-11-21T09:40:30.316Z,26.23
2022-11-21T09:43:08.555Z,24.20
2022-11-21T09:45:44.701Z,27.33
2022-11-21T09:48:14.214Z,26.63
2022-11-21T09:50:54.691Z,27.55
2022-11-21T09:53:28.773Z,26.83
2022-11-21T09:55:59.837Z,26.35
2022-11-21T09:58:49.084Z,29.05
2022-11-21T10:01:17.151Z,25.65
2022-11-21T10:03:49.248Z,29.05
2022-11-21T10:06:20.377Z,26.85
2022-11-21T10:09:09.871Z,28.60
2022-11-21T10:12:21.987Z,27.27
2022-11-21T10:15:08.177Z,27.40
2022-11-21T10:17:43.456Z,28.05
2022-11-21T10:20:22.236Z,27.58
2022-11-21T10:23:03.856Z,25.60
2022-11-21T10:25:38.057Z,29.08
2022-11-21T10:28:15.507Z,28.65
2022-11-21T10:30:45.165Z,28.40
2022-11-21T10:33:18.550Z,25.00
2022-11-21T10:35:49.756Z,26.45
2022-11-21T10:38:23.049Z,25.25
2022-11-21T10:40:55.121Z,24.83
2022-11-21T10:44:06.232Z,23.33
2022-11-21T10:46:32.784Z,23.05
2022-11-21T10:49:01.880Z,23.23
2022-11-21T10:51:50.230Z,20.45
2022-11-21T10:54:32.543Z,20.98
2022-11-21T10:57:13.689Z,21.52
2022-11-21T10:59:40.397Z,20.08
2022-11-21T11:02:12.941Z,16.75
2022-11-21T11:04:47.308Z,17.02
2022-11-21T11:07:28.688Z,16.70
2022-11-21T11:10:28.190Z,16.65
2022-11-21T11:16:09.893Z,8.88
2022-11-21T11:18:41.176Z,8.32
2022-11-21T11:21:13.437Z,7.65
2022-11-21T11:23:40.285Z,7.05
2022-11-21T11:26:24.920Z,8.10
2022-11-21T11:28:51.744Z,8.60
2022-11-21T11:31:18.493Z,8.32
2022-11-21T11:33:47.852Z,8.20
2022-11-21T11:36:38.112Z,7.90
2022-11-21T11:39:23.412Z,7.78
2022-11-21T11:42:47.292Z,7.05
2022-11-21T11:45:32.448Z,7.47
2022-11-21T11:48:00.886Z,6.75
2022-11-21T11:50:51.425Z,6.75
2022-11-21T11:53:24.638Z,6.70
2022-11-21T11:56:24.530Z,4.95
2022-11-21T11:59:02.760Z,4.55
2022-11-21T12:02:11.695Z,5.25
2022-11-21T12:04:51.416Z,5.40
2022-11-21T12:08:33.065Z,5.20
2022-11-21T12:11:21.103Z,5.30
2022-11-21T12:13:54.465Z,5.65
2022-11-21T12:16:24.931Z,5.85
2022-11-21T12:18:58.456Z,5.68
2022-11-21T12:21:25.063Z,5.60
2022-11-21T12:24:03.019Z,5.07
2022-11-21T12:26:53.876Z,6.05
2022-11-21T12:29:27.210Z,5.47
2022-11-21T12:32:12.755Z,6.30
2022-11-21T12:35:08.704Z,5.13
2022-11-21T12:38:25.919Z,6.55
2022-11-21T12:41:47.302Z,5.90
2022-11-21T12:44:48.159Z,4.13
2022-11-21T12:48:10.962Z,4.82
2022-11-21T12:51:05.323Z,5.23
2022-11-21T12:54:17.952Z,4.95
2022-11-21T12:56:45.451Z,3.75
2022-11-21T12:59:14.205Z,3.40
2022-11-21T13:02:04.226Z,4.78
2022-11-21T13:04:34.997Z,5.50
2022-11-21T13:07:04.209Z,8.07
2022-11-21T13:09:40.125Z,5.70
2022-11-21T13:12:23.825Z,5.30
2022-11-21T13:15:13.625Z,4.28
2022-11-21T13:17:50.471Z,3.83
2022-11-21T13:20:24.054Z,4.75
2022-11-21T13:22:55.414Z,6.65
2022-11-21T13:25:43.338Z,5.22
2022-11-21T13:28:19.098Z,4.25
2022-11-21T13:30:50.483Z,4.28
2022-11-21T13:33:37.071Z,4.00
2022-11-21T13:36:33.783Z,3.67
2022-11-21T13:39:01.832Z,4.38
2022-11-21T13:41:54.157Z,3.33
2022-11-21T13:44:30.764Z,3.83
2022-11-21T13:47:03.264Z,4.93
2022-11-21T13:49:40.001Z,4.63
2022-11-21T13:52:34.311Z,6.75
2022-11-21T13:55:39.463Z,5.50
2022-11-21T13:58:26.949Z,4.90
2022-11-21T14:01:41.835Z,5.00
2022-11-21T14:04:11.374Z,5.22
2022-11-21T14:06:39.414Z,4.45
2022-11-21T14:09:18.219Z,5.00
2022-11-21T14:11:53.400Z,4.93
2022-11-21T14:14:30.364Z,5.72
2022-11-21T14:17:06.705Z,5.85
2022-11-21T14:19:34.715Z,4.63
2022-11-21T14:22:01.830Z,4.95
2022-11-21T14:24:29.704Z,4.65
2022-11-21T14:26:56.588Z,4.43
2022-11-21T14:29:28.035Z,4.13
2022-11-21T14:31:56.037Z,4.53
2022-11-21T14:34:31.150Z,3.78
2022-11-21T14:37:00.322Z,4.93
2022-11-21T14:39:41.032Z,4.85
2022-11-21T14:42:14.995Z,5.05
2022-11-21T14:44:41.627Z,5.28
2022-11-21T14:47:21.251Z,5.40
2022-11-21T14:49:54.227Z,4.60
2022-11-21T14:52:30.526Z,5.43
2022-11-21T14:57:52.124Z,5.18
2022-11-21T15:03:22.419Z,4.75
2022-11-21T15:06:07.951Z,4.80
2022-11-21T15:11:29.648Z,4.50
2022-11-21T15:14:18.013Z,4.63
2022-11-21T15:16:51.302Z,4.00
2022-11-21T15:19:24.592Z,4.55
2022-11-21T15:21:54.057Z,4.07
2022-11-21T15:24:43.230Z,3.20
2022-11-21T15:27:28.468Z,3.42
2022-11-21T15:30:10.197Z,3.30
2022-11-21T15:33:01.483Z,2.95
2022-11-21T15:35:40.352Z,2.92
2022-11-21T15:38:18.447Z,2.80
2022-11-21T15:40:59.698Z,3.50
2022-11-21T15:43:46.466Z,2.88
2022-11-21T15:46:15.865Z,2.75
2022-11-21T15:48:44.875Z,2.65
2022-11-21T15:51:12.447Z,3.78
2022-11-21T15:53:39.530Z,3.13
2022-11-21T15:56:06.294Z,2.70
2022-11-21T15:58:33.085Z,2.60
2022-11-21T16:01:00.358Z,3.38
2022-11-21T16:03:27.247Z,3.28
2022-11-21T16:05:53.774Z,2.97
2022-11-21T16:08:20.231Z,3.20
2022-11-21T16:10:46.794Z,3.35
2022-11-21T16:13:13.285Z,2.88
2022-11-21T16:15:40.136Z,3.65
2022-11-21T16:18:06.690Z,3.33
2022-11-21T16:20:33.265Z,3.25
2022-11-21T16:22:59.740Z,4.18
2022-11-21T16:25:26.276Z,3.20
2022-11-21T16:27:52.805Z,2.90
2022-11-21T16:30:20.596Z,2.83
2022-11-21T16:32:47.237Z,3.88
2022-11-21T16:35:13.817Z,3.03
2022-11-21T16:37:40.382Z,3.05
2022-11-21T16:40:07.517Z,3.90
2022-11-21T16:42:33.988Z,3.53
2022-11-21T16:45:00.498Z,3.50
2022-11-21T16:47:27.013Z,3.53
2022-11-21T16:49:53.637Z,2.92
2022-11-21T16:52:20.209Z,3.35
2022-11-21T16:54:47.249Z,3.50
2022-11-21T16:57:13.944Z,3.72
2022-11-21T16:59:40.474Z,3.78
2022-11-21T17:02:07.086Z,3.47
2022-11-21T17:04:34.740Z,3.08
2022-11-21T17:07:02.768Z,2.72
2022-11-21T17:09:29.335Z,2.35
2022-11-21T17:11:59.107Z,3.08
2022-11-21T17:14:25.877Z,2.78
2022-11-21T17:16:52.428Z,2.78
2022-11-21T17:19:18.995Z,3.20
2022-11-21T17:21:45.608Z,2.40
2022-11-21T17:24:15.849Z,2.42
2022-11-21T17:26:42.334Z,2.80
2022-11-21T17:29:09.049Z,2.78
2022-11-21T17:31:36.542Z,2.72
2022-11-21T17:34:03.094Z,2.63
2022-11-21T17:36:30.730Z,2.75
2022-11-21T17:38:57.427Z,2.83
2022-11-21T17:41:25.859Z,2.40
2022-11-21T17:43:57.325Z,2.60
2022-11-21T17:46:28.138Z,2.65
2022-11-21T17:48:58.417Z,4.70
2022-11-21T17:51:29.206Z,3.92
2022-11-21T17:53:55.886Z,2.97
2022-11-21T17:56:25.441Z,2.22
2022-11-21T17:58:52.285Z,2.97
2022-11-21T18:01:20.584Z,2.50
2022-11-21T18:03:48.678Z,2.88
2022-11-21T18:06:17.319Z,2.45
2022-11-21T18:08:46.498Z,2.40
2022-11-21T18:11:18.196Z,3.17
2022-11-21T18:13:45.385Z,2.03
2022-11-21T18:16:14.384Z,4.78
2022-11-21T18:18:41.199Z,6.45
2022-11-21T18:21:11.059Z,5.85
2022-11-21T18:23:37.997Z,6.38
2022-11-21T18:26:20.977Z,5.65
2022-11-21T18:29:01.753Z,5.15
2022-11-21T18:31:37.192Z,7.88
2022-11-21T18:34:05.567Z,9.07
2022-11-21T18:36:32.612Z,5.30
2022-11-21T18:39:06.000Z,7.93
2022-11-21T18:41:37.696Z,8.55
2022-11-21T18:44:06.233Z,7.18
2022-11-21T18:46:36.131Z,7.18
2022-11-21T18:49:05.936Z,6.28
2022-11-21T18:51:33.033Z,6.20
2022-11-21T18:54:08.033Z,4.85
2022-11-21T18:56:35.805Z,8.27
2022-11-21T18:59:03.340Z,3.95
2022-11-21T19:01:30.481Z,3.85
2022-11-21T19:03:57.240Z,4.72
2022-11-21T19:06:25.467Z,3.72
2022-11-21T19:08:54.120Z,3.80
2022-11-21T19:11:24.171Z,6.18
2022-11-21T19:13:51.196Z,5.28
2022-11-21T19:16:20.197Z,6.78
2022-11-21T19:19:05.505Z,6.00
2022-11-21T19:21:38.246Z,4.38
2022-11-21T19:24:06.813Z,3.50
2022-11-21T19:26:33.753Z,6.45
2022-11-21T19:29:00.275Z,7.28
2022-11-21T19:31:26.789Z,5.93
2022-11-21T19:33:53.316Z,5.63
2022-11-21T19:36:21.556Z,6.18
2022-11-21T19:38:50.927Z,6.32
2022-11-21T19:41:25.289Z,3.97
2022-11-21T19:43:54.309Z,6.88
2022-11-21T19:46:35.323Z,7.05
2022-11-21T19:49:02.272Z,7.60
2022-11-21T19:51:30.948Z,4.38
2022-11-21T19:53:57.501Z,3.40
2022-11-21T19:56:25.914Z,3.50
2022-11-21T19:58:53.313Z,3.88
2022-11-21T20:01:22.681Z,3.47
2022-11-21T20:03:51.498Z,3.97
2022-11-21T20:06:23.911Z,3.85
2022-11-21T20:09:06.875Z,3.95
2022-11-21T20:14:00.943Z,4.28
2022-11-21T20:16:28.860Z,5.20
2022-11-21T20:18:59.442Z,4.28
2022-11-21T20:21:26.506Z,6.50
2022-11-21T20:23:53.261Z,5.95
2022-11-21T20:26:21.683Z,4.45
2022-11-21T20:28:48.656Z,5.10
2022-11-21T20:31:16.509Z,4.15
2022-11-21T20:33:44.934Z,4.57
2022-11-21T20:36:18.378Z,4.30
2022-11-21T20:38:50.089Z,4.97
2022-11-21T20:41:18.717Z,4.38
2022-11-21T20:44:32.336Z,4.88
2022-11-21T20:46:34.202Z,4.88
2022-11-21T20:49:01.103Z,4.10
2022-11-21T20:54:15.646Z,4.45
2022-11-21T20:56:44.397Z,4.20
2022-11-21T20:59:11.962Z,4.47
2022-11-21T21:01:38.641Z,5.53
2022-11-21T21:04:06.220Z,4.63
2022-11-21T21:06:32.718Z,4.10
2022-11-21T21:09:00.285Z,4.68
2022-11-21T21:14:13.737Z,4.30
2022-11-21T21:16:40.345Z,4.80
2022-11-21T21:19:06.791Z,4.70
2022-11-21T21:21:33.378Z,3.88
2022-11-21T21:24:02.677Z,4.13
2022-11-21T21:26:34.564Z,4.40
2022-11-21T21:29:03.796Z,4.50
2022-11-21T21:31:30.854Z,5.05
2022-11-21T21:33:58.364Z,5.10
2022-11-21T21:36:26.085Z,4.30
2022-11-21T21:38:55.685Z,4.38
2022-11-21T21:41:25.352Z,4.85
2022-11-21T21:43:53.395Z,5.38
2022-11-21T21:46:22.852Z,5.10
2022-11-21T21:48:52.894Z,5.10
2022-11-21T21:51:22.355Z,4.90
2022-11-21T21:53:50.195Z,4.72
2022-11-21T21:56:18.590Z,4.85
2022-11-21T21:58:47.065Z,4.72
2022-11-21T22:01:20.271Z,4.47
2022-11-21T22:03:47.493Z,5.30
2022-11-21T22:06:16.414Z,6.38
2022-11-21T22:08:44.616Z,4.38
2022-11-21T22:11:13.700Z,4.78
2022-11-21T22:13:42.433Z,4.43
2022-11-21T22:16:11.500Z,4.10
2022-11-21T22:18:38.854Z,4.13
2022-11-21T22:21:20.561Z,5.05
2022-11-21T22:24:09.778Z,4.70
2022-11-21T22:26:33.987Z,4.40
2022-11-21T22:29:00.497Z,4.53
2022-11-21T22:31:31.249Z,4.65
2022-11-21T22:33:58.494Z,6.07
2022-11-21T22:36:25.049Z,5.10
2022-11-21T22:38:56.043Z,4.93
2022-11-21T22:41:26.355Z,5.32
2022-11-21T22:43:58.705Z,4.28
2022-11-21T22:46:27.680Z,4.72
2022-11-21T22:48:54.618Z,4.05
2022-11-21T22:51:26.376Z,4.32
2022-11-21T22:53:53.928Z,4.40
2022-11-21T22:56:22.592Z,4.72
2022-11-21T22:58:50.232Z,4.53
2022-11-21T23:01:22.523Z,4.28
2022-11-21T23:03:49.593Z,4.38
2022-11-21T23:06:23.482Z,4.63
2022-11-21T23:08:51.832Z,5.13
2022-11-21T23:11:22.682Z,4.80
2022-11-21T23:13:49.923Z,4.40
2022-11-21T23:16:17.291Z,4.03
2022-11-21T23:18:44.062Z,4.63
2022-11-21T23:21:13.031Z,5.18
2022-11-21T23:23:39.768Z,5.55
2022-11-21T23:26:06.804Z,5.60
2022-11-21T23:28:34.507Z,5.18
2022-11-21T23:31:02.267Z,5.38
2022-11-21T23:33:28.854Z,5.70
2022-11-21T23:35:55.488Z,5.27
2022-11-21T23:38:22.107Z,5.22
2022-11-21T23:40:49.551Z,4.75
2022-11-21T23:43:16.939Z,4.18
2022-11-21T23:45:45.371Z,4.65
2022-11-21T23:48:12.196Z,4.40
2022-11-21T23:50:38.781Z,4.75
2022-11-21T23:53:05.282Z,4.35
2022-11-21T23:55:32.302Z,5.07
2022-11-21T23:57:58.892Z,4.70
